Terminal Aerodrome Forecast
Issued by NWS Goodland, KS

Home | Current Version | Previous Version | Text Only | Print | Product List | Glossary On
Versions: 1 2 3 4 5 6 7 8 9 10 11 12 13 14 15 16 17 18 19 20 21 22 23 24 25
000
FTUS43 KGLD 271316 AAA
TAFGLD
TAF AMD
KGLD 271316Z 2713/2812 16013KT P6SM -RA SCT060 BKN100
     FM271500 16012G18KT P6SM BKN070
     FM271900 16016G25KT P6SM SCT050 SCT250
     FM272300 15015G23KT P6SM VCTS BKN045CB
      TEMPO 2800/2804 VRB25G35KT 4SM TSRA BR
     FM280500 16011KT P6SM SCT030 BKN150
     FM280800 17010KT P6SM SCT015 BKN030
      TEMPO 2809/2812 SCT007 OVC015=

USA.gov is the U.S. government's official web portal to all federal, state and local government web resources and services.